Terminal Aerodrome Forecast
Issued by NWS

Home | Current Version | Previous Version | Text Only | Print | Product List | Glossary On
Versions: 1 2 3 4 5 6 7 8 9 10 11 12 13 14 15
551
FTUS42 KGSP 281121
TAFAND
TAF
KAND 281121Z 2812/2912 24005KT P6SM FEW250
     FM281400 25009KT P6SM FEW080
     FM281800 23013G22KT P6SM FEW045
     FM290200 24007KT P6SM FEW150=

USA.gov is the U.S. government's official web portal to all federal, state and local government web resources and services.